sensor_id;sensor_type;location;lat;lon;timestamp;pressure;altitude;pressure_sealevel;temperature;humidity
5988;BME280;3021;51.000;6.980;2023-02-19T00:02:24;67492.56;;;10.75;100.00
5988;BME280;3021;51.000;6.980;2023-02-19T00:04:50;67482.03;;;10.63;100.00
5988;BME280;3021;51.000;6.980;2023-02-19T00:07:15;67485.50;;;10.66;100.00
5988;BME280;3021;51.000;6.980;2023-02-19T00:09:40;67478.69;;;10.63;100.00
5988;BME280;3021;51.000;6.980;2023-02-19T00:12:06;67491.25;;;10.71;100.00
5988;BME280;3021;51.000;6.980;2023-02-19T00:14:31;67486.78;;;10.70;100.00
5988;BME280;3021;51.000;6.980;2023-02-19T00:16:56;67479.88;;;10.64;100.00
5988;BME280;3021;51.000;6.980;2023-02-19T00:19:22;67484.34;;;10.65;100.00
5988;BME280;3021;51.000;6.980;2023-02-19T00:21:50;67482.16;;;10.66;100.00
5988;BME280;3021;51.000;6.980;2023-02-19T00:24:15;67480.44;;;10.64;100.00
5988;BME280;3021;51.000;6.980;2023-02-19T00:26:42;67477.56;;;10.62;100.00
5988;BME280;3021;51.000;6.980;2023-02-19T00:29:11;67476.41;;;10.61;100.00
5988;BME280;3021;51.000;6.980;2023-02-19T00:31:37;67471.06;;;10.53;100.00
5988;BME280;3021;51.000;6.980;2023-02-19T00:34:04;67487.81;;;10.68;100.00
5988;BME280;3021;51.000;6.980;2023-02-19T00:36:31;67488.53;;;10.71;100.00
5988;BME280;3021;51.000;6.980;2023-02-19T00:38:57;67488.97;;;10.69;100.00
5988;BME280;3021;51.000;6.980;2023-02-19T00:41:23;67489.41;;;10.67;100.00
5988;BME280;3021;51.000;6.980;2023-02-19T00:46:19;67487.38;;;10.70;100.00
5988;BME280;3021;51.000;6.980;2023-02-19T00:48:45;67494.59;;;10.72;100.00
5988;BME280;3021;51.000;6.980;2023-02-19T00:51:10;67494.59;;;10.72;100.00
5988;BME280;3021;51.000;6.980;2023-02-19T00:53:36;67494.00;;;10.71;100.00
5988;BME280;3021;51.000;6.980;2023-02-19T00:56:01;67486.66;;;10.67;100.00
5988;BME280;3021;51.000;6.980;2023-02-19T00:58:27;67486.66;;;10.67;100.00
5988;BME280;3021;51.000;6.980;2023-02-19T01:00:52;67482.59;;;10.64;100.00
5988;BME280;3021;51.000;6.980;2023-02-19T01:03:18;67482.16;;;10.66;100.00
5988;BME280;3021;51.000;6.980;2023-02-19T01:05:43;67487.22;;;10.68;100.00
5988;BME280;3021;51.000;6.980;2023-02-19T01:08:08;67484.34;;;10.65;100.00
5988;BME280;3021;51.000;6.980;2023-02-19T01:10:34;67488.81;;;10.67;100.00
5988;BME280;3021;51.000;6.980;2023-02-19T01:12:59;67488.41;;;10.69;100.00
5988;BME280;3021;51.000;6.980;2023-02-19T01:15:24;67480.88;;;10.62;100.00
5988;BME280;3021;51.000;6.980;2023-02-19T01:17:50;67481.03;;;10.65;100.00
5988;BME280;3021;51.000;6.980;2023-02-19T01:20:15;67491.84;;;10.72;100.00
5988;BME280;3021;51.000;6.980;2023-02-19T01:22:40;67496.03;;;10.78;100.00
5988;BME280;3021;51.000;6.980;2023-02-19T01:25:06;67505.72;;;10.84;100.00
5988;BME280;3021;51.000;6.980;2023-02-19T01:27:31;67506.16;;;10.82;100.00
5988;BME280;3021;51.000;6.980;2023-02-19T01:29:56;67499.50;;;10.81;100.00
5988;BME280;3021;51.000;6.980;2023-02-19T01:32:22;67504.28;;;10.88;100.00
5988;BME280;3021;51.000;6.980;2023-02-19T01:34:47;67513.81;;;10.92;100.00
5988;BME280;3021;51.000;6.980;2023-02-19T01:37:12;67509.91;;;10.91;100.00
5988;BME280;3021;51.000;6.980;2023-02-19T01:39:38;67513.81;;;10.92;100.00
5988;BME280;3021;51.000;6.980;2023-02-19T01:42:04;67514.97;;;10.93;100.00
5988;BME280;3021;51.000;6.980;2023-02-19T01:46:55;67510.94;;;10.89;100.00
5988;BME280;3021;51.000;6.980;2023-02-19T01:49:27;67508.03;;;10.86;100.00
5988;BME280;3021;51.000;6.980;2023-02-19T01:51:59;67517.13;;;10.92;100.00
5988;BME280;3021;51.000;6.980;2023-02-19T01:54:28;67531.59;;;11.05;100.00
5988;BME280;3021;51.000;6.980;2023-02-19T01:56:56;67530.00;;;11.06;100.00
5988;BME280;3021;51.000;6.980;2023-02-19T01:59:21;67522.63;;;11.02;100.00
5988;BME280;3021;51.000;6.980;2023-02-19T02:01:47;67531.31;;;11.10;100.00
5988;BME280;3021;51.000;6.980;2023-02-19T02:04:14;67533.03;;;11.11;100.00
5988;BME280;3021;51.000;6.980;2023-02-19T02:06:52;67528.41;;;11.07;100.00
5988;BME280;3021;51.000;6.980;2023-02-19T02:09:19;67534.19;;;11.12;100.00
5988;BME280;3021;51.000;6.980;2023-02-19T02:12:20;67529.41;;;11.05;100.00
5988;BME280;3021;51.000;6.980;2023-02-19T02:14:46;67542.00;;;11.14;100.00
5988;BME280;3021;51.000;6.980;2023-02-19T02:20:12;67522.03;;;11.01;100.00
5988;BME280;3021;51.000;6.980;2023-02-19T02:22:54;67518.88;;;10.94;100.00
5988;BME280;3021;51.000;6.980;2023-02-19T02:31:12;67502.09;;;10.79;100.00
5988;BME280;3021;51.000;6.980;2023-02-19T02:33:40;67492.44;;;10.72;100.00
5988;BME280;3021;51.000;6.980;2023-02-19T02:36:12;67495.75;;;10.73;100.00
5988;BME280;3021;51.000;6.980;2023-02-19T02:38:42;67498.78;;;10.78;100.00
5988;BME280;3021;51.000;6.980;2023-02-19T02:41:10;67485.50;;;10.66;100.00
5988;BME280;3021;51.000;6.980;2023-02-19T02:43:36;67490.13;;;10.70;100.00
5988;BME280;3021;51.000;6.980;2023-02-19T02:46:02;67503.25;;;10.80;100.00
5988;BME280;3021;51.000;6.980;2023-02-19T02:51:24;67499.34;;;10.79;100.00
5988;BME280;3021;51.000;6.980;2023-02-19T02:54:06;67505.16;;;10.84;100.00
5988;BME280;3021;51.000;6.980;2023-02-19T02:56:53;67507.03;;;10.88;100.00
5988;BME280;3021;51.000;6.980;2023-02-19T02:59:26;67519.16;;;10.99;100.00
5988;BME280;3021;51.000;6.980;2023-02-19T03:01:59;67538.66;;;11.14;100.00
5988;BME280;3021;51.000;6.980;2023-02-19T03:07:25;67529.56;;;11.08;100.00
5988;BME280;3021;51.000;6.980;2023-02-19T03:09:55;67541.56;;;11.16;100.00
5988;BME280;3021;51.000;6.980;2023-02-19T03:12:23;67528.25;;;11.04;100.00
5988;BME280;3021;51.000;6.980;2023-02-19T03:15:09;67548.06;;;11.24;100.00
5988;BME280;3021;51.000;6.980;2023-02-19T03:18:06;67541.56;;;11.16;100.00
5988;BME280;3021;51.000;6.980;2023-02-19T03:20:54;67545.19;;;11.22;100.00
5988;BME280;3021;51.000;6.980;2023-02-19T03:23:22;67551.38;;;11.25;100.00
5988;BME280;3021;51.000;6.980;2023-02-19T03:26:12;67547.78;;;11.19;100.00
5988;BME280;3021;51.000;6.980;2023-02-19T03:28:40;67553.28;;;11.29;100.00
5988;BME280;3021;51.000;6.980;2023-02-19T03:31:27;67534.19;;;11.12;100.00
5988;BME280;3021;51.000;6.980;2023-02-19T03:33:57;67554.28;;;11.28;100.00
5988;BME280;3021;51.000;6.980;2023-02-19T03:36:27;67549.81;;;11.26;100.00
5988;BME280;3021;51.000;6.980;2023-02-19T03:39:01;67535.78;;;11.11;100.00
5988;BME280;3021;51.000;6.980;2023-02-19T03:47:16;67536.50;;;11.14;100.00
5988;BME280;3021;51.000;6.980;2023-02-19T03:50:06;67504.69;;;10.86;100.00
5988;BME280;3021;51.000;6.980;2023-02-19T03:57:57;67515.56;;;10.93;100.00
5988;BME280;3021;51.000;6.980;2023-02-19T04:00:35;67515.69;;;10.96;100.00
5988;BME280;3021;51.000;6.980;2023-02-19T04:05:58;67538.09;;;11.13;100.00
5988;BME280;3021;51.000;6.980;2023-02-19T04:08:25;67535.94;;;11.14;100.00
5988;BME280;3021;51.000;6.980;2023-02-19T04:10:52;67530.00;;;11.06;100.00
5988;BME280;3021;51.000;6.980;2023-02-19T04:13:25;67532.88;;;11.09;100.00
5988;BME280;3021;51.000;6.980;2023-02-19T04:15:53;67523.66;;;11.00;100.00
5988;BME280;3021;51.000;6.980;2023-02-19T04:18:24;67522.03;;;11.01;100.00
5988;BME280;3021;51.000;6.980;2023-02-19T04:20:52;67513.09;;;10.88;100.00
5988;BME280;3021;51.000;6.980;2023-02-19T04:23:22;67502.09;;;10.79;100.00
5988;BME280;3021;51.000;6.980;2023-02-19T04:25:50;67497.50;;;10.75;100.00
5988;BME280;3021;51.000;6.980;2023-02-19T04:28:18;67483.78;;;10.65;100.00
5988;BME280;3021;51.000;6.980;2023-02-19T04:30:43;67471.22;;;10.56;100.00
5988;BME280;3021;51.000;6.980;2023-02-19T04:33:09;67473.94;;;10.56;100.00
5988;BME280;3021;51.000;6.980;2023-02-19T04:35:34;67459.06;;;10.45;100.00
5988;BME280;3021;51.000;6.980;2023-02-19T04:38:00;67458.34;;;10.42;100.00
5988;BME280;3021;51.000;6.980;2023-02-19T04:40:25;67456.03;;;10.40;100.00
5988;BME280;3021;51.000;6.980;2023-02-19T04:42:51;67453.00;;;10.35;100.00
5988;BME280;3021;51.000;6.980;2023-02-19T04:45:16;67450.41;;;10.37;100.00
5988;BME280;3021;51.000;6.980;2023-02-19T04:47:41;67437.94;;;10.21;100.00
5988;BME280;3021;51.000;6.980;2023-02-19T04:50:07;67428.28;;;10.15;100.00
5988;BME280;3021;51.000;6.980;2023-02-19T04:52:32;67437.94;;;10.21;100.00
5988;BME280;3021;51.000;6.980;2023-02-19T04:54:58;67427.69;;;10.15;100.00
5988;BME280;3021;51.000;6.980;2023-02-19T04:57:23;67420.19;;;10.08;100.00
5988;BME280;3021;51.000;6.980;2023-02-19T04:59:48;67416.88;;;10.08;100.00
5988;BME280;3021;51.000;6.980;2023-02-19T05:02:14;67415.00;;;10.03;100.00
5988;BME280;3021;51.000;6.980;2023-02-19T05:04:40;67404.16;;;9.96;100.00
5988;BME280;3021;51.000;6.980;2023-02-19T05:07:05;67416.56;;;10.02;100.00
5988;BME280;3021;51.000;6.980;2023-02-19T05:09:30;67420.75;;;10.09;100.00
5988;BME280;3021;51.000;6.980;2023-02-19T05:11:56;67415.16;;;10.06;100.00
5988;BME280;3021;51.000;6.980;2023-02-19T05:14:21;67408.63;;;9.98;100.00
5988;BME280;3021;51.000;6.980;2023-02-19T05:16:47;67412.25;;;10.03;100.00
5988;BME280;3021;51.000;6.980;2023-02-19T05:19:12;67398.97;;;9.92;100.00
5988;BME280;3021;51.000;6.980;2023-02-19T05:21:38;67406.31;;;9.96;100.00
5988;BME280;3021;51.000;6.980;2023-02-19T05:24:05;67396.50;;;9.87;100.00
5988;BME280;3021;51.000;6.980;2023-02-19T05:26:30;67389.59;;;9.81;100.00
5988;BME280;3021;51.000;6.980;2023-02-19T05:28:55;67388.56;;;9.82;100.00
5988;BME280;3021;51.000;6.980;2023-02-19T05:31:21;67393.03;;;9.84;100.00
5988;BME280;3021;51.000;6.980;2023-02-19T05:33:47;67400.56;;;9.91;100.00
5988;BME280;3021;51.000;6.980;2023-02-19T05:36:16;67398.22;;;9.89;100.00
5988;BME280;3021;51.000;6.980;2023-02-19T05:38:41;67405.75;;;9.95;100.00
5988;BME280;3021;51.000;6.980;2023-02-19T05:41:15;67402.28;;;9.92;100.00
5988;BME280;3021;51.000;6.980;2023-02-19T05:43:43;67407.91;;;9.95;100.00
5988;BME280;3021;51.000;6.980;2023-02-19T05:46:10;67406.19;;;9.93;100.00
5988;BME280;3021;51.000;6.980;2023-02-19T05:48:36;67393.03;;;9.84;100.00
5988;BME280;3021;51.000;6.980;2023-02-19T05:51:03;67396.09;;;9.89;100.00
5988;BME280;3021;51.000;6.980;2023-02-19T05:53:29;67403.28;;;9.91;100.00
5988;BME280;3021;51.000;6.980;2023-02-19T05:55:54;67395.50;;;9.89;100.00
5988;BME280;3021;51.000;6.980;2023-02-19T05:58:19;67389.72;;;9.83;100.00
5988;BME280;3021;51.000;6.980;2023-02-19T06:00:45;67390.75;;;9.82;100.00
5988;BME280;3021;51.000;6.980;2023-02-19T06:03:10;67400.41;;;9.88;100.00
5988;BME280;3021;51.000;6.980;2023-02-19T06:05:36;67398.38;;;9.91;100.00
5988;BME280;3021;51.000;6.980;2023-02-19T06:08:02;67398.97;;;9.92;100.00
5988;BME280;3021;51.000;6.980;2023-02-19T06:10:27;67393.63;;;9.84;100.00
5988;BME280;3021;51.000;6.980;2023-02-19T06:12:53;67382.22;;;9.77;100.00
5988;BME280;3021;51.000;6.980;2023-02-19T06:15:18;67372.97;;;9.68;100.00
5988;BME280;3021;51.000;6.980;2023-02-19T06:17:44;67365.47;;;9.62;100.00
5988;BME280;3021;51.000;6.980;2023-02-19T06:20:09;67369.81;;;9.61;100.00
5988;BME280;3021;51.000;6.980;2023-02-19T06:22:34;67377.72;;;9.65;100.00
5988;BME280;3021;51.000;6.980;2023-02-19T06:25:00;67384.81;;;9.74;100.00
5988;BME280;3021;51.000;6.980;2023-02-19T06:27:25;67395.78;;;9.84;100.00
5988;BME280;3021;51.000;6.980;2023-02-19T06:29:51;67399.25;;;9.87;100.00
5988;BME280;3021;51.000;6.980;2023-02-19T06:32:16;67384.97;;;9.77;100.00
5988;BME280;3021;51.000;6.980;2023-02-19T06:34:41;67365.91;;;9.60;100.00
5988;BME280;3021;51.000;6.980;2023-02-19T06:37:07;67361.28;;;9.56;100.00
5988;BME280;3021;51.000;6.980;2023-02-19T06:39:32;67370.97;;;9.62;100.00
5988;BME280;3021;51.000;6.980;2023-02-19T06:41:58;67366.34;;;9.58;100.00
5988;BME280;3021;51.000;6.980;2023-02-19T06:44:23;67362.44;;;9.57;100.00
5988;BME280;3021;51.000;6.980;2023-02-19T06:46:49;67377.88;;;9.68;100.00
5988;BME280;3021;51.000;6.980;2023-02-19T06:49:15;67375.88;;;9.71;100.00
5988;BME280;3021;51.000;6.980;2023-02-19T06:51:41;67367.22;;;9.63;100.00
5988;BME280;3021;51.000;6.980;2023-02-19T06:54:06;67362.59;;;9.59;100.00
5988;BME280;3021;51.000;6.980;2023-02-19T06:56:33;67368.78;;;9.62;100.00
5988;BME280;3021;51.000;6.980;2023-02-19T06:59:01;67380.34;;;9.73;100.00
5988;BME280;3021;51.000;6.980;2023-02-19T07:01:28;67364.03;;;9.56;100.00
5988;BME280;3021;51.000;6.980;2023-02-19T07:03:54;67382.50;;;9.72;100.00
5988;BME280;3021;51.000;6.980;2023-02-19T07:06:21;67376.31;;;9.69;100.00
5988;BME280;3021;51.000;6.980;2023-02-19T07:08:48;67375.16;;;9.68;100.00
5988;BME280;3021;51.000;6.980;2023-02-19T07:11:13;67365.47;;;9.62;100.00
5988;BME280;3021;51.000;6.980;2023-02-19T07:13:39;67377.88;;;9.68;100.00
5988;BME280;3021;51.000;6.980;2023-02-19T07:16:06;67376.72;;;9.67;100.00
5988;BME280;3021;51.000;6.980;2023-02-19T07:18:32;67386.28;;;9.80;100.00
5988;BME280;3021;51.000;6.980;2023-02-19T07:21:08;67377.31;;;9.67;100.00
5988;BME280;3021;51.000;6.980;2023-02-19T07:23:34;67381.50;;;9.74;100.00
5988;BME280;3021;51.000;6.980;2023-02-19T07:26:00;67378.59;;;9.71;100.00
5988;BME280;3021;51.000;6.980;2023-02-19T07:28:25;67382.66;;;9.75;100.00
5988;BME280;3021;51.000;6.980;2023-02-19T07:30:51;67399.97;;;9.90;100.00
5988;BME280;3021;51.000;6.980;2023-02-19T07:33:16;67387.28;;;9.79;100.00
5988;BME280;3021;51.000;6.980;2023-02-19T07:35:49;67389.00;;;9.80;100.00
5988;BME280;3021;51.000;6.980;2023-02-19T07:38:20;67387.28;;;9.79;100.00
5988;BME280;3021;51.000;6.980;2023-02-19T07:43:17;67411.53;;;10.00;100.00
5988;BME280;3021;51.000;6.980;2023-02-19T07:45:43;67388.41;;;9.80;100.00
5988;BME280;3021;51.000;6.980;2023-02-19T07:48:08;67386.13;;;9.78;100.00
5988;BME280;3021;51.000;6.980;2023-02-19T07:50:33;67378.59;;;9.71;100.00
5988;BME280;3021;51.000;6.980;2023-02-19T07:52:59;67380.94;;;9.73;100.00
5988;BME280;3021;51.000;6.980;2023-02-19T07:55:24;67380.94;;;9.73;100.00
5988;BME280;3021;51.000;6.980;2023-02-19T07:57:50;67387.84;;;9.79;100.00
5988;BME280;3021;51.000;6.980;2023-02-19T08:00:15;67380.94;;;9.73;100.00
5988;BME280;3021;51.000;6.980;2023-02-19T08:02:40;67387.84;;;9.79;100.00
5988;BME280;3021;51.000;6.980;2023-02-19T08:05:29;67392.03;;;9.85;100.00
5988;BME280;3021;51.000;6.980;2023-02-19T08:07:55;67388.56;;;9.82;100.00
5988;BME280;3021;51.000;6.980;2023-02-19T08:10:21;67390.88;;;9.84;100.00
5988;BME280;3021;51.000;6.980;2023-02-19T08:13:06;67368.94;;;9.65;100.00
5988;BME280;3021;51.000;6.980;2023-02-19T08:15:46;67367.63;;;9.61;100.00
5988;BME280;3021;51.000;6.980;2023-02-19T08:18:13;67370.69;;;9.66;100.00
5988;BME280;3021;51.000;6.980;2023-02-19T08:20:39;67371.09;;;9.64;100.00
5988;BME280;3021;51.000;6.980;2023-02-19T08:23:05;67379.19;;;9.72;100.00
5988;BME280;3021;51.000;6.980;2023-02-19T08:25:31;67390.75;;;9.82;100.00
5988;BME280;3021;51.000;6.980;2023-02-19T08:27:57;67394.19;;;9.85;100.00
5988;BME280;3021;51.000;6.980;2023-02-19T08:30:24;67416.16;;;10.05;100.00
5988;BME280;3021;51.000;6.980;2023-02-19T08:32:50;67411.66;;;10.03;100.00
5988;BME280;3021;51.000;6.980;2023-02-19T08:35:15;67433.06;;;10.22;100.00
5988;BME280;3021;51.000;6.980;2023-02-19T08:37:41;67462.25;;;10.43;100.00
5988;BME280;3021;51.000;6.980;2023-02-19T08:40:06;67459.50;;;10.43;100.00
5988;BME280;3021;51.000;6.980;2023-02-19T08:42:32;67453.88;;;10.41;100.00
5988;BME280;3021;51.000;6.980;2023-02-19T08:44:57;67472.63;;;10.52;100.00
5988;BME280;3021;51.000;6.980;2023-02-19T08:47:22;67482.59;;;10.64;100.00
5988;BME280;3021;51.000;6.980;2023-02-19T08:49:48;67477.97;;;10.60;100.00
5988;BME280;3021;51.000;6.980;2023-02-19T08:52:13;67449.25;;;10.36;100.00
5988;BME280;3021;51.000;6.980;2023-02-19T08:54:38;67468.16;;;10.51;100.00
5988;BME280;3021;51.000;6.980;2023-02-19T08:57:04;67472.94;;;10.58;100.00
5988;BME280;3021;51.000;6.980;2023-02-19T08:59:30;67473.94;;;10.56;100.00
5988;BME280;3021;51.000;6.980;2023-02-19T09:01:57;67475.09;;;10.57;100.00
5988;BME280;3021;51.000;6.980;2023-02-19T09:04:22;67469.47;;;10.54;100.00
5988;BME280;3021;51.000;6.980;2023-02-19T09:06:48;67511.66;;;10.92;100.00
5988;BME280;3021;51.000;6.980;2023-02-19T09:09:13;67545.03;;;11.19;100.00
5988;BME280;3021;51.000;6.980;2023-02-19T09:11:39;67564.13;;;11.36;100.00
5988;BME280;3021;51.000;6.980;2023-02-19T09:14:04;67560.66;;;11.33;100.00
5988;BME280;3021;51.000;6.980;2023-02-19T09:16:32;67586.81;;;11.59;100.00
5988;BME280;3021;51.000;6.980;2023-02-19T09:18:58;67598.22;;;11.67;100.00
5988;BME280;3021;51.000;6.980;2023-02-19T09:21:23;67588.41;;;11.58;100.00
5988;BME280;3021;51.000;6.980;2023-02-19T09:23:49;67566.56;;;11.41;100.00
5988;BME280;3021;51.000;6.980;2023-02-19T09:26:14;67560.22;;;11.35;100.00
5988;BME280;3021;51.000;6.980;2023-02-19T09:28:39;67545.59;;;11.20;100.00
5988;BME280;3021;51.000;6.980;2023-02-19T09:31:07;67549.06;;;11.23;100.00
5988;BME280;3021;51.000;6.980;2023-02-19T09:33:33;67528.41;;;11.07;100.00
5988;BME280;3021;51.000;6.980;2023-02-19T09:35:59;67536.34;;;11.12;100.00
5988;BME280;3021;51.000;6.980;2023-02-19T09:38:25;67537.09;;;11.15;100.00
5988;BME280;3021;51.000;6.980;2023-02-19T09:40:50;67532.88;;;11.09;100.00
5988;BME280;3021;51.000;6.980;2023-02-19T09:43:18;67529.56;;;11.08;100.00
5988;BME280;3021;51.000;6.980;2023-02-19T09:45:45;67572.34;;;11.46;100.00
5988;BME280;3021;51.000;6.980;2023-02-19T09:48:11;67626.59;;;11.92;100.00
5988;BME280;3021;51.000;6.980;2023-02-19T09:50:41;67602.41;;;11.73;100.00
5988;BME280;3021;51.000;6.980;2023-02-19T09:53:18;67582.75;;;11.55;100.00
5988;BME280;3021;51.000;6.980;2023-02-19T09:55:45;67590.84;;;11.63;100.00
5988;BME280;3021;51.000;6.980;2023-02-19T09:58:31;67592.44;;;11.62;100.00
5988;BME280;3021;51.000;6.980;2023-02-19T10:01:00;67598.22;;;11.67;100.00
5988;BME280;3021;51.000;6.980;2023-02-19T10:03:34;67587.25;;;11.57;100.00
5988;BME280;3021;51.000;6.980;2023-02-19T10:06:04;67566.56;;;11.41;100.00
5988;BME280;3021;51.000;6.980;2023-02-19T10:08:33;67523.22;;;11.02;100.00
5988;BME280;3021;51.000;6.980;2023-02-19T10:11:02;67511.06;;;10.92;100.00
5988;BME280;3021;51.000;6.980;2023-02-19T10:13:32;67540.56;;;11.18;100.00
5988;BME280;3021;51.000;6.980;2023-02-19T10:16:01;67669.56;;;12.33;100.00
5988;BME280;3021;51.000;6.980;2023-02-19T10:18:31;67632.53;;;12.00;100.00
5988;BME280;3021;51.000;6.980;2023-02-19T10:20:57;67580.88;;;11.51;100.00
5988;BME280;3021;51.000;6.980;2023-02-19T10:23:23;67565.84;;;11.38;100.00
5988;BME280;3021;51.000;6.980;2023-02-19T10:25:55;67565.41;;;11.40;100.00
5988;BME280;3021;51.000;6.980;2023-02-19T10:28:28;67548.06;;;11.24;100.00
5988;BME280;3021;51.000;6.980;2023-02-19T10:30:56;67528.84;;;11.05;100.00
5988;BME280;3021;51.000;6.980;2023-02-19T10:33:22;67504.56;;;10.83;100.00
5988;BME280;3021;51.000;6.980;2023-02-19T10:38:31;67508.19;;;10.89;100.00
5988;BME280;3021;51.000;6.980;2023-02-19T10:41:03;67531.88;;;11.10;100.00
5988;BME280;3021;51.000;6.980;2023-02-19T10:43:33;67534.91;;;11.15;100.00
5988;BME280;3021;51.000;6.980;2023-02-19T10:46:04;67545.19;;;11.22;100.00
5988;BME280;3021;51.000;6.980;2023-02-19T10:48:36;67525.94;;;11.02;100.00
5988;BME280;3021;51.000;6.980;2023-02-19T10:51:06;67488.53;;;10.71;100.00
5988;BME280;3021;51.000;6.980;2023-02-19T10:56:38;67479.16;;;10.61;100.00
5988;BME280;3021;51.000;6.980;2023-02-19T11:01:53;67532.88;;;11.09;100.00
5988;BME280;3021;51.000;6.980;2023-02-19T11:04:19;67568.75;;;11.40;100.00
5988;BME280;3021;51.000;6.980;2023-02-19T11:06:45;67592.44;;;11.62;100.00
5988;BME280;3021;51.000;6.980;2023-02-19T11:09:53;67638.88;;;12.05;100.00
5988;BME280;3021;51.000;6.980;2023-02-19T11:12:13;67662.63;;;12.26;100.00
5988;BME280;3021;51.000;6.980;2023-02-19T11:14:43;67673.59;;;12.36;100.00
5988;BME280;3021;51.000;6.980;2023-02-19T11:17:22;67681.72;;;12.43;100.00
5988;BME280;3021;51.000;6.980;2023-02-19T11:19:53;67695.31;;;12.51;100.00
5988;BME280;3021;51.000;6.980;2023-02-19T11:24:53;67732.50;;;12.86;100.00
5988;BME280;3021;51.000;6.980;2023-02-19T11:27:23;67768.53;;;13.21;100.00
5988;BME280;3021;51.000;6.980;2023-02-19T11:29:49;67790.44;;;13.38;100.00
5988;BME280;3021;51.000;6.980;2023-02-19T11:32:27;67823.00;;;13.69;100.00
5988;BME280;3021;51.000;6.980;2023-02-19T11:35:17;67847.34;;;13.91;100.00
5988;BME280;3021;51.000;6.980;2023-02-19T11:38:00;67827.66;;;13.73;100.00
5988;BME280;3021;51.000;6.980;2023-02-19T11:40:51;67797.94;;;13.44;100.00
5988;BME280;3021;51.000;6.980;2023-02-19T11:46:17;67778.25;;;13.27;100.00
5988;BME280;3021;51.000;6.980;2023-02-19T11:51:40;67691.09;;;12.54;100.00
5988;BME280;3021;51.000;6.980;2023-02-19T11:56:42;67652.94;;;12.20;100.00
5988;BME280;3021;51.000;6.980;2023-02-19T11:59:25;67651.47;;;12.14;100.00
5988;BME280;3021;51.000;6.980;2023-02-19T12:02:17;67670.72;;;12.34;100.00
5988;BME280;3021;51.000;6.980;2023-02-19T12:05:15;67677.06;;;12.39;100.00
5988;BME280;3021;51.000;6.980;2023-02-19T12:13:30;67699.06;;;12.59;100.00
5988;BME280;3021;51.000;6.980;2023-02-19T12:16:23;67816.06;;;13.63;100.00
5988;BME280;3021;51.000;6.980;2023-02-19T12:19:23;67846.91;;;13.93;100.00
5988;BME280;3021;51.000;6.980;2023-02-19T12:27:51;67837.94;;;13.80;100.00
5988;BME280;3021;51.000;6.980;2023-02-19T12:30:22;67847.91;;;13.91;100.00
5988;BME280;3021;51.000;6.980;2023-02-19T12:41:22;67894.72;;;14.30;100.00
5988;BME280;3021;51.000;6.980;2023-02-19T12:43:59;67892.09;;;14.33;100.00
5988;BME280;3021;51.000;6.980;2023-02-19T12:46:36;67894.28;;;14.32;100.00
5988;BME280;3021;51.000;6.980;2023-02-19T12:49:08;67865.31;;;14.07;100.00
5988;BME280;3021;51.000;6.980;2023-02-19T12:54:25;67814.91;;;13.62;100.00
5988;BME280;3021;51.000;6.980;2023-02-19T12:57:05;67774.91;;;13.26;100.00
5988;BME280;3021;51.000;6.980;2023-02-19T12:59:51;67775.34;;;13.24;100.00
5988;BME280;3021;51.000;6.980;2023-02-19T13:02:26;67750.44;;;13.02;100.00
5988;BME280;3021;51.000;6.980;2023-02-19T13:05:03;67727.44;;;12.84;100.00
5988;BME280;3021;51.000;6.980;2023-02-19T13:07:44;67724.53;;;12.82;100.00
5988;BME280;3021;51.000;6.980;2023-02-19T13:13:11;67640.06;;;12.06;100.00
5988;BME280;3021;51.000;6.980;2023-02-19T13:15:42;67600.09;;;11.71;100.00
5988;BME280;3021;51.000;6.980;2023-02-19T13:18:23;67570.47;;;11.42;100.00
5988;BME280;3021;51.000;6.980;2023-02-19T13:20:51;67575.81;;;11.49;100.00
5988;BME280;3021;51.000;6.980;2023-02-19T13:37:01;67753.34;;;13.05;100.00
5988;BME280;3021;51.000;6.980;2023-02-19T13:39:26;67765.78;;;13.21;100.00
5988;BME280;3021;51.000;6.980;2023-02-19T13:41:54;67769.72;;;13.22;100.00
5988;BME280;3021;51.000;6.980;2023-02-19T13:44:24;67747.09;;;13.02;100.00
5988;BME280;3021;51.000;6.980;2023-02-19T13:46:50;67748.28;;;13.03;100.00
5988;BME280;3021;51.000;6.980;2023-02-19T13:51:49;67724.53;;;12.82;100.00
5988;BME280;3021;51.000;6.980;2023-02-19T13:54:41;67742.34;;;12.95;100.00
5988;BME280;3021;51.000;6.980;2023-02-19T13:59:51;67722.22;;;12.79;100.00
5988;BME280;3021;51.000;6.980;2023-02-19T14:30:27;67602.72;;;11.68;100.00
5988;BME280;3021;51.000;6.980;2023-02-19T14:32:54;67571.03;;;11.43;100.00
5988;BME280;3021;51.000;6.980;2023-02-19T14:35:22;67533.19;;;11.14;100.00
5988;BME280;3021;51.000;6.980;2023-02-19T14:37:50;67517.28;;;10.95;100.00
5988;BME280;3021;51.000;6.980;2023-02-19T14:40:22;67485.06;;;10.68;100.00
5988;BME280;3021;51.000;6.980;2023-02-19T14:42:52;67480.44;;;10.64;100.00
5988;BME280;3021;51.000;6.980;2023-02-19T14:45:19;67453.16;;;10.37;100.00
5988;BME280;3021;51.000;6.980;2023-02-19T14:47:45;67449.66;;;10.34;100.00
5988;BME280;3021;51.000;6.980;2023-02-19T14:50:16;67433.63;;;10.23;100.00
5988;BME280;3021;51.000;6.980;2023-02-19T14:52:47;67426.53;;;10.14;100.00
5988;BME280;3021;51.000;6.980;2023-02-19T14:57:46;67416.72;;;10.05;100.00
5988;BME280;3021;51.000;6.980;2023-02-19T15:00:23;67416.72;;;10.05;100.00
5988;BME280;3021;51.000;6.980;2023-02-19T15:02:51;67404.16;;;9.96;100.00
5988;BME280;3021;51.000;6.980;2023-02-19T15:05:20;67405.91;;;9.98;100.00
5988;BME280;3021;51.000;6.980;2023-02-19T15:07:46;67422.94;;;10.08;100.00
5988;BME280;3021;51.000;6.980;2023-02-19T15:10:13;67411.66;;;10.03;100.00
5988;BME280;3021;51.000;6.980;2023-02-19T15:12:47;67414.00;;;10.05;100.00
5988;BME280;3021;51.000;6.980;2023-02-19T15:15:17;67428.84;;;10.16;100.00
5988;BME280;3021;51.000;6.980;2023-02-19T15:17:45;67439.41;;;10.28;100.00
5988;BME280;3021;51.000;6.980;2023-02-19T15:20:16;67430.72;;;10.20;100.00
5988;BME280;3021;51.000;6.980;2023-02-19T15:22:42;67423.81;;;10.14;100.00
5988;BME280;3021;51.000;6.980;2023-02-19T15:25:14;67426.69;;;10.16;100.00
5988;BME280;3021;51.000;6.980;2023-02-19T15:27:40;67439.81;;;10.26;100.00
5988;BME280;3021;51.000;6.980;2023-02-19T15:30:18;67441.13;;;10.29;100.00
5988;BME280;3021;51.000;6.980;2023-02-19T15:32:54;67434.78;;;10.24;100.00
5988;BME280;3021;51.000;6.980;2023-02-19T15:35:20;67440.41;;;10.26;100.00